Time;durP1;ratioP1;P1;durP2;ratioP2;P2;SDS_P1;SDS_P2;PMS_P1;PMS_P2;Temp;Humidity;BMP_temperature;BMP_pressure;BME280_temperature;BME280_humidity;BME280_pressure;Samples;Min_cycle;Max_cycle;Signal;HPM_P1;HPM_P2
2022/01/27 00:00:38;;;;;;;63.05;28.33;;;1.70;81.50;;;-0.38;90.21;97147.78;4960428;28;20043;-60
2022/01/27 00:05:33;;;;;;;60.58;27.75;;;1.60;80.90;;;-0.39;89.71;97153.88;4913658;29;20058;-61
2022/01/27 00:13:15;;;;;;;55.10;25.60;;;1.50;81.00;;;-0.40;89.34;97144.47;4946296;23;20053;-65
2022/01/27 00:15:42;;;;;;;52.03;25.45;;;1.60;80.50;;;-0.50;88.92;97133.88;4920693;28;20067;-64
2022/01/27 00:18:14;;;;;;;54.88;24.75;;;1.40;81.10;;;-0.46;89.38;97139.66;4896298;28;20506;-64
2022/01/27 00:20:40;;;;;;;51.17;25.40;;;1.50;80.70;;;-0.45;89.21;97146.53;4912418;29;20443;-64
2022/01/27 00:23:06;;;;;;;55.55;25.67;;;1.50;80.60;;;-0.44;89.31;97138.69;4935102;28;20040;-65
2022/01/27 00:25:31;;;;;;;53.55;25.90;;;1.60;80.30;;;-0.43;88.95;97139.50;4966434;28;20058;-64
2022/01/27 00:27:57;;;;;;;52.95;25.83;;;1.60;80.40;;;-0.47;89.15;97138.84;4937120;28;20542;-64
2022/01/27 00:30:23;;;;;;;53.70;24.45;;;1.50;80.30;;;-0.45;89.05;97149.94;4952273;28;20439;-64
2022/01/27 00:32:49;;;;;;;56.38;25.60;;;1.60;80.30;;;-0.46;89.12;97150.00;4951932;28;20031;-65
2022/01/27 00:35:14;;;;;;;54.38;25.05;;;1.50;80.20;;;-0.44;88.83;97153.34;4940774;28;20039;-64
2022/01/27 00:37:40;;;;;;;58.40;26.40;;;1.60;80.30;;;-0.47;89.27;97163.84;4952271;28;20363;-65
2022/01/27 00:40:08;;;;;;;60.03;25.52;;;1.40;80.50;;;-0.47;88.95;97163.84;4949875;28;20050;-64
2022/01/27 00:42:34;;;;;;;57.28;26.20;;;1.50;80.40;;;-0.46;89.32;97160.34;4917612;29;20059;-65
2022/01/27 00:45:00;;;;;;;59.15;27.60;;;1.60;80.20;;;-0.43;88.78;97155.00;4910048;28;20051;-66
2022/01/27 00:47:25;;;;;;;65.88;27.60;;;1.60;80.10;;;-0.42;89.33;97146.34;4951101;28;20407;-64
2022/01/27 00:49:51;;;;;;;54.80;26.17;;;1.60;80.20;;;-0.43;88.89;97153.25;4935669;29;20031;-65
2022/01/27 00:52:26;;;;;;;59.08;25.85;;;1.50;79.80;;;-0.49;88.79;97155.38;4951583;28;20059;-64
2022/01/27 00:54:53;;;;;;;55.20;25.73;;;1.40;80.50;;;-0.50;89.27;97151.13;4963285;28;20035;-64
2022/01/27 00:58:21;;;;;;;54.30;25.38;;;1.40;80.10;;;-0.50;89.17;97144.19;4940606;28;20614;-64
2022/01/27 01:00:07;;;;;;;59.60;25.10;;;1.40;80.00;;;-0.51;88.62;97142.53;4942382;28;20241;-65
2022/01/27 01:05:17;;;;;;;56.10;25.92;;;1.40;79.90;;;-0.52;88.68;97133.13;4957575;28;20094;-63
2022/01/27 01:07:46;;;;;;;55.55;25.13;;;1.40;79.90;;;-0.51;88.34;97131.38;4945444;28;20480;-63
2022/01/27 01:15:40;;;;;;;57.00;24.85;;;1.50;79.70;;;-0.53;88.38;97135.81;4948177;28;20055;-64
2022/01/27 01:18:21;;;;;;;57.97;26.45;;;1.40;80.00;;;-0.52;88.23;97134.88;4948731;28;20036;-64
2022/01/27 01:32:08;;;;;;;56.28;27.10;;;1.40;80.60;;;-0.58;88.62;97135.28;4943474;28;20050;-64
2022/01/27 01:34:33;;;;;;;53.58;26.20;;;1.50;79.90;;;-0.58;88.37;97135.28;4933269;29;20191;-64
2022/01/27 01:37:05;;;;;;;59.78;26.27;;;1.40;80.00;;;-0.58;88.61;97127.53;4947883;28;20028;-64
2022/01/27 01:39:34;;;;;;;54.97;27.33;;;1.40;79.80;;;-0.57;88.42;97131.75;4933766;29;20038;-64
2022/01/27 01:42:01;;;;;;;52.45;25.70;;;1.40;79.80;;;-0.58;88.88;97125.78;4933364;28;20426;-64
2022/01/27 01:44:27;;;;;;;53.95;26.02;;;1.40;79.50;;;-0.59;88.40;97125.88;4950417;28;20038;-64
2022/01/27 01:46:53;;;;;;;47.70;24.48;;;1.40;79.50;;;-0.62;88.08;97130.31;4917650;29;20153;-65
2022/01/27 01:49:19;;;;;;;51.78;24.77;;;1.30;79.30;;;-0.64;87.86;97132.16;4948908;28;20039;-64
2022/01/27 01:51:45;;;;;;;53.10;26.80;;;1.40;79.40;;;-0.62;88.37;97130.31;4950151;28;20035;-65
2022/01/27 01:54:12;;;;;;;55.42;26.85;;;1.40;79.30;;;-0.64;88.44;97121.81;4955357;28;20404;-64
2022/01/27 01:56:39;;;;;;;57.22;26.33;;;1.40;79.40;;;-0.61;87.95;97131.13;4931078;28;20031;-64
2022/01/27 01:59:07;;;;;;;55.40;26.85;;;1.30;79.50;;;-0.60;88.06;97131.97;4949788;28;20054;-65
2022/01/27 02:01:34;;;;;;;55.50;26.35;;;1.40;79.30;;;-0.65;88.34;97130.50;4950333;28;20024;-65
2022/01/27 02:04:04;;;;;;;50.53;25.10;;;1.40;79.30;;;-0.61;87.85;97138.88;4915374;29;20394;-64
2022/01/27 02:06:36;;;;;;;51.63;25.63;;;1.40;79.20;;;-0.67;87.89;97141.84;4945916;28;20039;-65
2022/01/27 02:19:56;;;;;;;48.95;24.42;;;1.30;79.30;;;-0.71;88.16;97115.34;4949431;28;20086;-64
2022/01/27 02:22:22;;;;;;;53.42;25.70;;;1.20;79.40;;;-0.72;87.81;97107.69;4937611;29;20034;-64
2022/01/27 02:24:48;;;;;;;49.25;24.55;;;1.30;79.40;;;-0.71;87.66;97107.59;4948329;28;20046;-65
2022/01/27 02:27:15;;;;;;;50.97;25.48;;;1.20;79.10;;;-0.70;87.89;97106.69;4948171;28;20549;-64
2022/01/27 02:29:40;;;;;;;48.28;24.98;;;1.40;79.10;;;-0.69;87.67;97108.34;4950151;28;20031;-65
2022/01/27 02:32:07;;;;;;;49.95;25.73;;;1.40;78.90;;;-0.67;87.59;97116.84;4929873;28;20604;-64
2022/01/27 02:34:33;;;;;;;49.67;24.73;;;1.40;78.80;;;-0.68;87.93;97110.03;4932915;28;20036;-64
2022/01/27 02:36:58;;;;;;;54.78;26.27;;;1.40;78.80;;;-0.66;87.77;97113.34;4964940;28;20074;-64
2022/01/27 02:39:24;;;;;;;54.20;25.58;;;1.50;78.70;;;-0.66;87.58;97108.16;4962184;28;20508;-65
2022/01/27 02:41:50;;;;;;;56.92;25.92;;;1.40;78.80;;;-0.66;87.92;97108.16;4965754;28;20480;-64
2022/01/27 02:44:34;;;;;;;52.15;26.85;;;1.40;78.90;;;-0.66;88.18;97118.50;4951070;28;20594;-65
2022/01/27 02:47:00;;;;;;;56.50;26.77;;;1.40;79.30;;;-0.68;87.93;97115.19;4949358;28;20035;-66
2022/01/27 02:49:26;;;;;;;51.42;26.55;;;1.40;79.10;;;-0.71;87.76;97099.84;4951114;28;20237;-64
2022/01/27 02:51:52;;;;;;;53.03;26.02;;;1.30;79.20;;;-0.69;87.87;97102.34;4934577;29;20031;-65
2022/01/27 02:54:19;;;;;;;54.67;26.95;;;1.30;79.00;;;-0.69;88.02;97099.75;4937208;29;20035;-64
2022/01/27 02:56:47;;;;;;;53.53;27.00;;;1.30;79.20;;;-0.67;88.38;97091.00;4946560;28;20039;-64
2022/01/27 02:59:14;;;;;;;55.30;27.40;;;1.40;78.90;;;-0.67;88.06;97078.09;4965384;28;20035;-64
2022/01/27 03:01:40;;;;;;;55.58;27.77;;;1.50;78.90;;;-0.64;87.87;97072.72;4942022;28;20058;-65
2022/01/27 03:04:05;;;;;;;52.15;26.42;;;1.60;78.90;;;-0.63;88.33;97071.81;4965479;28;20070;-64
2022/01/27 03:06:31;;;;;;;55.90;27.77;;;1.50;78.80;;;-0.62;88.36;97072.63;4964253;28;20325;-64
2022/01/27 03:08:57;;;;;;;56.60;28.17;;;1.60;78.80;;;-0.63;88.01;97069.22;4929506;29;20142;-65
2022/01/27 03:11:57;;;;;;;55.63;27.80;;;1.50;78.90;;;-0.65;88.69;97057.31;4945348;28;20412;-65
2022/01/27 03:14:23;;;;;;;58.28;28.85;;;1.50;78.90;;;-0.65;87.82;97068.50;4944994;28;20055;-64
2022/01/27 03:16:52;;;;;;;59.25;29.50;;;1.50;79.00;;;-0.66;88.01;97055.66;4931080;29;20126;-64
2022/01/27 03:19:17;;;;;;;61.03;29.00;;;1.50;79.10;;;-0.68;88.50;97058.34;4929900;28;20036;-64
2022/01/27 03:21:43;;;;;;;58.22;28.77;;;1.50;79.40;;;-0.67;88.48;97054.84;4930350;28;20035;-64
2022/01/27 03:24:09;;;;;;;60.08;29.75;;;1.50;79.10;;;-0.67;88.29;97065.16;4963429;28;20507;-65
2022/01/27 03:26:35;;;;;;;57.35;29.23;;;1.40;78.80;;;-0.67;88.33;97054.84;4940105;29;20420;-64
2022/01/27 03:29:00;;;;;;;56.97;27.90;;;1.50;78.50;;;-0.66;87.98;97056.50;4932368;28;20039;-64
2022/01/27 03:31:27;;;;;;;55.47;29.40;;;1.50;78.50;;;-0.67;87.94;97054.84;4948812;28;20151;-64
2022/01/27 03:33:52;;;;;;;57.03;28.60;;;1.40;78.60;;;-0.70;88.10;97044.66;4933140;28;20027;-65
2022/01/27 03:36:18;;;;;;;62.20;29.95;;;1.20;78.90;;;-0.74;87.72;97043.22;4924069;28;20421;-64
2022/01/27 03:38:44;;;;;;;62.80;30.20;;;1.20;79.40;;;-0.77;88.09;97053.75;4938109;28;20031;-67
2022/01/27 03:41:11;;;;;;;57.15;29.63;;;1.20;79.40;;;-0.77;87.93;97063.25;4922883;28;20449;-65
2022/01/27 03:43:38;;;;;;;64.82;30.75;;;1.20;79.50;;;-0.75;87.62;97066.56;4927889;28;20032;-63
2022/01/27 03:46:04;;;;;;;58.72;29.20;;;1.20;79.40;;;-0.78;87.96;97070.16;4944423;28;20054;-66
2022/01/27 03:48:30;;;;;;;60.53;29.35;;;1.20;79.60;;;-0.78;87.74;97077.91;4913815;28;20047;-63
2022/01/27 03:50:56;;;;;;;62.63;31.67;;;1.10;80.00;;;-0.76;88.06;97081.22;4934552;28;20063;-65
2022/01/27 03:53:21;;;;;;;59.85;31.10;;;1.20;79.70;;;-0.76;88.08;97077.81;4948541;28;20039;-65
2022/01/27 03:55:47;;;;;;;60.92;30.48;;;1.30;79.50;;;-0.78;88.40;97075.31;4941560;28;20163;-65
2022/01/27 03:58:13;;;;;;;63.70;31.83;;;1.20;79.80;;;-0.77;88.15;97066.66;4916890;28;20031;-65
2022/01/27 04:00:39;;;;;;;64.80;31.25;;;1.30;79.60;;;-0.76;88.33;97057.16;4932224;28;20035;-65
2022/01/27 04:03:10;;;;;;;62.15;30.88;;;1.20;79.40;;;-0.83;88.26;97051.53;4948139;28;20042;-65
2022/01/27 04:05:39;;;;;;;;;;;1.10;79.90;;;-0.82;89.26;97050.63;4945805;28;20062;-66
2022/01/27 04:08:08;;;;;;;60.55;29.48;;;1.20;79.80;;;-0.84;88.34;97044.72;4959902;28;19978;-65
2022/01/27 04:10:34;;;;;;;69.63;32.60;;;1.10;79.80;;;-0.83;88.15;97041.22;4939619;28;20050;-65
2022/01/27 04:13:00;;;;;;;64.22;32.15;;;1.20;79.70;;;-0.84;88.32;97031.81;4942831;28;20439;-64
2022/01/27 04:15:26;;;;;;;67.53;32.97;;;1.20;79.50;;;-0.89;88.62;97033.84;4931321;28;20483;-64
2022/01/27 04:17:51;;;;;;;64.15;32.78;;;1.10;79.70;;;-0.93;88.38;97032.38;4931673;28;20031;-64
2022/01/27 04:20:17;;;;;;;65.07;33.35;;;1.10;79.90;;;-0.94;88.48;97033.28;4948150;28;20579;-64
2022/01/27 04:22:43;;;;;;;73.50;36.33;;;1.10;79.90;;;-0.96;88.85;97043.72;4948217;28;20464;-65
2022/01/27 04:25:09;;;;;;;75.68;39.08;;;1.10;80.10;;;-0.97;88.74;97039.47;4962651;28;20062;-65
2022/01/27 04:27:38;;;;;;;69.25;33.92;;;1.00;80.00;;;-1.01;88.72;97034.59;4929895;28;20058;-64
2022/01/27 04:30:10;;;;;;;69.93;34.70;;;1.00;80.40;;;-1.03;88.71;97031.28;4950423;28;20138;-64
2022/01/27 04:32:43;;;;;;;70.25;34.00;;;1.00;80.70;;;-1.03;88.80;97031.28;4914282;29;20035;-64
2022/01/27 04:35:13;;;;;;;68.53;33.42;;;1.00;80.60;;;-1.06;89.09;97021.16;4959725;28;20118;-64
2022/01/27 04:37:43;;;;;;;68.75;34.00;;;0.90;80.80;;;-1.09;89.30;97027.34;4943460;28;20140;-65
2022/01/27 04:40:15;;;;;;;85.72;42.30;;;0.90;80.90;;;-1.10;89.22;97019.69;4944032;28;20064;-65
2022/01/27 04:42:54;;;;;;;78.15;39.67;;;0.90;81.10;;;-1.10;89.27;97020.53;4945342;28;20058;-65
2022/01/27 04:45:24;;;;;;;69.43;34.08;;;0.90;80.80;;;-1.14;89.05;97018.19;4934215;28;20039;-64
2022/01/27 04:47:56;;;;;;;75.35;34.95;;;0.80;81.00;;;-1.17;89.18;97013.22;4929298;29;20046;-68
2022/01/27 04:50:22;;;;;;;70.00;34.85;;;0.80;80.90;;;-1.20;89.41;97008.25;4926149;28;20054;-64
2022/01/27 04:52:50;;;;;;;75.20;35.60;;;0.80;81.40;;;-1.20;89.56;97013.41;4947000;28;20031;-62
2022/01/27 04:55:18;;;;;;;76.25;36.75;;;0.80;81.10;;;-1.20;89.79;97018.59;4970863;28;20066;-63
2022/01/27 04:57:45;;;;;;;78.35;37.60;;;0.80;81.10;;;-1.20;89.72;97018.59;4936315;28;20166;-65
2022/01/27 05:00:14;;;;;;;87.65;42.08;;;0.80;81.00;;;-1.20;89.72;97018.59;4945094;28;20574;-64
2022/01/27 05:05:07;;;;;;;79.30;39.03;;;0.90;80.90;;;-1.21;89.75;96998.84;4939115;28;20036;-64
2022/01/27 05:07:32;;;;;;;82.40;37.92;;;0.90;81.00;;;-1.18;89.90;96996.91;4916035;29;20043;-64
2022/01/27 05:10:07;;;;;;;85.75;40.10;;;0.90;81.00;;;-1.17;90.35;97000.31;4950231;28;20518;-64
2022/01/27 05:12:40;;;;;;;104.65;49.83;;;0.90;81.80;;;-1.14;91.42;96992.38;4968204;28;20470;-64
2022/01/27 05:15:07;;;;;;;107.05;52.17;;;1.10;83.00;;;-1.10;91.56;96991.28;4959808;28;20043;-64
2022/01/27 05:17:32;;;;;;;81.45;39.97;;;1.10;82.80;;;-1.08;91.19;96976.53;4951380;28;20035;-64
2022/01/27 05:19:58;;;;;;;88.00;41.33;;;1.10;81.30;;;-1.11;90.53;96977.56;4953418;28;20042;-64
2022/01/27 05:22:24;;;;;;;86.53;40.17;;;1.10;81.40;;;-1.12;90.86;96983.66;4951735;28;20416;-62
2022/01/27 05:24:49;;;;;;;77.50;36.55;;;1.00;81.10;;;-1.12;90.38;96990.56;4935598;28;20031;-64
2022/01/27 05:27:16;;;;;;;79.43;37.78;;;1.00;81.10;;;-1.13;90.53;96979.41;4903242;28;20130;-64
2022/01/27 05:29:42;;;;;;;78.25;37.88;;;1.00;81.10;;;-1.15;90.77;96981.22;4916816;28;20495;-64
2022/01/27 05:32:11;;;;;;;75.40;37.97;;;1.00;81.00;;;-1.20;90.96;96982.44;4934060;28;20088;-65
2022/01/27 05:34:36;;;;;;;81.10;40.20;;;0.80;81.50;;;-1.26;90.89;96979.31;4932797;28;20107;-64
2022/01/27 05:37:02;;;;;;;77.22;38.17;;;0.80;81.60;;;-1.24;90.79;96995.53;4917727;28;20043;-64
2022/01/27 05:39:28;;;;;;;77.32;37.75;;;0.80;81.70;;;-1.26;91.00;96997.38;4917103;28;20031;-64
2022/01/27 05:41:54;;;;;;;81.45;39.83;;;0.80;81.50;;;-1.25;90.87;96996.47;4945517;28;20036;-64
2022/01/27 05:44:20;;;;;;;73.35;38.22;;;0.80;81.50;;;-1.33;90.95;96985.78;4952948;28;20070;-64
2022/01/27 05:46:45;;;;;;;82.57;38.50;;;0.70;81.60;;;-1.30;90.89;96977.03;4939951;28;20064;-63
2022/01/27 05:49:11;;;;;;;81.38;40.17;;;0.80;81.60;;;-1.32;90.90;96977.13;4916457;28;20123;-62
2022/01/27 05:51:37;;;;;;;86.53;41.58;;;0.70;81.50;;;-1.33;90.78;96983.22;4950228;28;20432;-63
2022/01/27 05:54:03;;;;;;;80.53;38.70;;;0.70;81.70;;;-1.34;90.63;96980.72;4963579;28;20533;-63
2022/01/27 05:56:28;;;;;;;84.25;41.83;;;0.80;81.70;;;-1.37;90.97;96979.13;4952761;28;20040;-63
2022/01/27 05:58:54;;;;;;;85.13;38.83;;;0.60;81.70;;;-1.37;90.81;96986.88;4932682;28;20039;-63
2022/01/27 06:01:20;;;;;;;80.10;38.78;;;0.70;81.70;;;-1.39;90.81;96982.75;4931969;28;20412;-63
2022/01/27 06:03:46;;;;;;;83.05;40.47;;;0.70;81.70;;;-1.39;91.28;96981.00;4916712;28;20023;-63
2022/01/27 06:06:11;;;;;;;75.88;38.17;;;0.80;81.80;;;-1.43;91.32;96963.22;4934242;28;20088;-63
2022/01/27 06:08:37;;;;;;;82.65;39.03;;;0.70;81.90;;;-1.44;91.56;96957.22;4932425;28;20076;-64
2022/01/27 06:11:03;;;;;;;85.40;40.70;;;0.70;81.90;;;-1.43;91.52;96956.31;4936845;28;20090;-63
2022/01/27 06:13:28;;;;;;;83.00;40.33;;;0.70;81.60;;;-1.49;91.32;96966.19;4925694;28;20534;-63
2022/01/27 06:15:55;;;;;;;83.55;40.05;;;0.50;82.10;;;-1.53;91.19;96967.28;4916051;28;20193;-63
2022/01/27 06:18:20;;;;;;;86.18;41.63;;;0.50;82.30;;;-1.54;91.38;96966.47;4916186;28;20051;-64
2022/01/27 06:20:46;;;;;;;83.38;41.80;;;0.40;82.40;;;-1.59;91.52;96955.56;4916365;28;20465;-63
2022/01/27 06:23:13;;;;;;;79.97;39.85;;;0.40;82.30;;;-1.60;91.24;96959.06;4915825;28;20035;-63
2022/01/27 06:25:39;;;;;;;84.32;42.10;;;0.40;82.30;;;-1.60;91.24;96964.22;4931735;28;20399;-63
2022/01/27 06:28:05;;;;;;;97.97;49.78;;;0.30;82.70;;;-1.61;91.87;96972.91;4949791;28;20031;-63
2022/01/27 06:30:36;;;;;;;87.00;43.05;;;0.40;83.00;;;-1.63;91.74;96956.69;4935037;28;20120;-63
2022/01/27 06:33:03;;;;;;;86.60;41.88;;;0.40;82.60;;;-1.66;91.69;96952.53;4934014;28;20034;-63
2022/01/27 06:35:29;;;;;;;81.63;40.47;;;0.40;82.40;;;-1.69;91.40;96963.06;4935304;28;20511;-64
2022/01/27 06:37:55;;;;;;;82.80;41.25;;;0.20;82.60;;;-1.71;91.57;96969.22;4940518;28;20040;-64
2022/01/27 06:40:21;;;;;;;83.45;40.63;;;0.20;82.70;;;-1.74;91.57;96961.69;4931666;28;20036;-64
2022/01/27 06:42:47;;;;;;;83.70;40.58;;;0.20;82.90;;;-1.80;91.83;96956.91;4945674;28;20043;-64
2022/01/27 06:45:13;;;;;;;83.72;41.58;;;0.10;83.00;;;-1.83;91.68;96957.88;4962519;28;20031;-63
2022/01/27 06:47:39;;;;;;;89.50;41.53;;;0.20;82.90;;;-1.85;91.83;96955.41;4915793;28;20127;-63
2022/01/27 06:50:06;;;;;;;88.25;41.92;;;0.10;83.00;;;-1.90;91.91;96952.28;4931772;28;20052;-64
2022/01/27 06:52:31;;;;;;;85.30;41.40;;;0.10;83.10;;;-1.94;91.91;96948.22;4955824;28;20058;-64
2022/01/27 06:54:57;;;;;;;84.47;41.50;;;0.00;83.30;;;-1.96;92.08;96952.63;4962765;28;20031;-63
2022/01/27 06:57:23;;;;;;;106.22;54.30;;;0.10;83.30;;;-1.98;92.53;96953.66;4949797;28;20448;-64
2022/01/27 06:59:49;;;;;;;119.93;60.20;;;0.10;83.40;;;-1.98;92.78;96958.81;4950677;28;20054;-64
2022/01/27 07:02:15;;;;;;;98.28;49.45;;;0.10;83.50;;;-1.95;92.80;96964.59;4950437;28;20701;-64
2022/01/27 07:04:41;;;;;;;86.20;42.05;;;0.10;83.30;;;-1.96;92.58;96955.22;4948467;28;20447;-64
2022/01/27 07:07:07;;;;;;;78.53;39.17;;;0.20;83.00;;;-2.00;92.47;96958.91;4950009;28;20038;-64
2022/01/27 07:09:32;;;;;;;82.47;41.08;;;0.10;83.20;;;-1.97;92.58;96950.16;4951602;28;20043;-63
2022/01/27 07:11:58;;;;;;;76.88;40.13;;;0.20;83.00;;;-1.96;92.65;96955.22;4920768;28;20036;-63
2022/01/27 07:14:24;;;;;;;80.05;39.55;;;0.20;82.70;;;-1.95;93.17;96950.88;4947589;28;20036;-63
2022/01/27 07:16:50;;;;;;;74.80;39.53;;;0.30;83.10;;;-1.91;93.11;96955.78;4950262;28;20126;-63
2022/01/27 07:19:16;;;;;;;81.30;42.03;;;0.30;82.90;;;-1.89;93.40;96947.94;4950989;28;20118;-63
2022/01/27 07:21:42;;;;;;;89.10;41.83;;;0.40;82.80;;;-1.82;93.35;96958.72;4934403;28;20031;-63
2022/01/27 07:24:08;;;;;;;77.47;39.88;;;0.40;82.60;;;-1.78;93.13;96955.06;4933981;28;20027;-63
2022/01/27 07:26:33;;;;;;;82.30;41.22;;;0.60;82.40;;;-1.73;92.96;96968.50;4915217;28;20047;-63
2022/01/27 07:28:59;;;;;;;74.53;39.72;;;0.60;81.70;;;-1.70;93.00;96952.81;4931128;28;20567;-63
2022/01/27 07:31:25;;;;;;;71.97;37.78;;;0.70;81.30;;;-1.67;92.37;96952.63;4914424;28;20448;-64
2022/01/27 07:33:52;;;;;;;70.28;38.28;;;0.80;80.90;;;-1.61;92.66;96953.09;4915113;28;20475;-64
2022/01/27 07:36:18;;;;;;;73.60;39.00;;;0.80;80.70;;;-1.57;92.63;96959.75;4917000;28;20047;-64
2022/01/27 07:38:45;;;;;;;72.60;39.15;;;0.90;80.50;;;-1.49;92.40;96961.84;4915103;28;20459;-64
2022/01/27 07:41:14;;;;;;;69.03;38.00;;;1.00;80.20;;;-1.44;92.50;96967.53;4927877;28;20043;-63
2022/01/27 07:43:40;;;;;;;72.45;38.70;;;1.10;79.80;;;-1.36;91.98;96957.59;4949782;28;20078;-64
2022/01/27 07:46:07;;;;;;;68.53;35.80;;;1.30;79.30;;;-1.27;91.87;96951.84;4934746;28;20047;-63
2022/01/27 07:48:33;;;;;;;64.40;36.72;;;1.40;78.60;;;-1.15;91.77;96950.25;4948496;28;20116;-63
2022/01/27 07:51:01;;;;;;;65.53;34.95;;;1.70;78.00;;;-1.06;91.54;96954.03;4949818;28;20082;-63
2022/01/27 07:53:27;;;;;;;63.67;35.42;;;1.90;76.70;;;-0.95;91.39;96941.25;4941438;28;20064;-63
2022/01/27 07:55:53;;;;;;;61.97;34.63;;;2.10;76.10;;;-0.81;91.56;96940.38;4946405;28;20035;-63
2022/01/27 07:58:19;;;;;;;58.90;33.97;;;2.30;75.40;;;-0.71;90.67;96937.09;4930489;28;20443;-63
2022/01/27 08:00:44;;;;;;;57.60;32.75;;;2.50;74.90;;;-0.57;90.66;96936.22;4931336;28;20523;-63
2022/01/27 08:03:10;;;;;;;55.88;31.55;;;2.60;74.30;;;-0.43;90.20;96940.50;4914267;28;20040;-64
2022/01/27 08:05:37;;;;;;;56.53;31.83;;;2.70;74.00;;;-0.30;90.44;96938.72;4930044;28;20020;-63
2022/01/27 08:08:02;;;;;;;51.13;31.20;;;2.70;73.40;;;-0.16;89.87;96935.25;4932389;28;20039;-63
2022/01/27 08:10:28;;;;;;;55.70;31.88;;;2.80;73.20;;;-0.07;89.07;96939.78;4938870;28;20035;-62
2022/01/27 08:12:54;;;;;;;47.55;29.90;;;2.80;72.80;;;0.06;88.95;96939.81;4949389;28;20035;-63
2022/01/27 08:15:22;;;;;;;51.25;30.30;;;2.90;72.40;;;0.14;88.23;96948.69;4932652;28;20058;-66
2022/01/27 08:17:48;;;;;;;50.90;29.40;;;2.90;71.90;;;0.21;87.55;96944.75;4949477;28;20519;-63
2022/01/27 08:20:14;;;;;;;48.60;27.58;;;3.00;71.90;;;0.25;87.31;96940.22;4914645;28;20039;-63
2022/01/27 08:22:43;;;;;;;53.38;29.20;;;2.90;71.00;;;0.30;86.82;96943.31;4914593;28;20086;-64
2022/01/27 08:25:08;;;;;;;42.58;26.63;;;2.90;71.00;;;0.37;86.19;96946.31;4915238;28;20468;-62
2022/01/27 08:27:36;;;;;;;41.38;26.30;;;3.00;71.00;;;0.43;86.32;96948.47;4949146;28;20094;-63
2022/01/27 08:30:05;;;;;;;45.53;26.25;;;3.00;70.90;;;0.49;86.05;96943.72;4933678;28;20044;-63
2022/01/27 08:32:47;;;;;;;40.20;25.45;;;3.10;70.70;;;0.58;85.29;96934.47;4933632;28;20035;-63
2022/01/27 08:35:14;;;;;;;43.67;25.50;;;3.30;70.30;;;0.65;85.13;96937.44;4933019;28;20403;-63
2022/01/27 08:37:40;;;;;;;39.85;24.98;;;3.40;69.60;;;0.71;84.90;96948.22;4949776;28;20062;-63
2022/01/27 08:40:06;;;;;;;37.67;24.55;;;3.40;69.40;;;0.86;84.97;96943.72;4926497;28;20515;-63
2022/01/27 08:42:32;;;;;;;38.53;24.40;;;3.70;68.80;;;0.97;84.14;96938.59;4916225;28;20858;-63
2022/01/27 08:44:57;;;;;;;35.88;22.55;;;3.90;68.30;;;1.10;84.05;96944.56;4939489;28;20144;-63
2022/01/27 08:47:23;;;;;;;34.13;22.20;;;4.10;67.60;;;1.23;84.31;96928.97;4934430;28;20147;-63
2022/01/27 08:49:49;;;;;;;36.03;23.20;;;4.20;67.50;;;1.35;83.54;96927.22;4934040;28;20130;-63
2022/01/27 08:52:15;;;;;;;35.30;22.55;;;4.40;66.30;;;1.49;83.05;96930.47;4947225;28;20030;-63
2022/01/27 08:54:42;;;;;;;34.72;21.85;;;4.70;65.40;;;1.61;82.96;96931.34;4962924;28;20617;-63
2022/01/27 08:57:08;;;;;;;30.55;20.33;;;4.70;64.90;;;1.74;82.22;96932.09;4955612;28;20549;-63
2022/01/27 08:59:34;;;;;;;31.38;19.27;;;5.00;63.80;;;1.86;81.89;96922.56;4973150;28;20043;-63
2022/01/27 09:02:02;;;;;;;31.25;19.67;;;5.20;62.70;;;1.98;80.99;96906.06;4972167;28;20027;-63
2022/01/27 09:04:28;;;;;;;30.90;19.83;;;5.20;61.90;;;2.10;81.06;96905.16;4963917;28;20031;-63
2022/01/27 09:06:53;;;;;;;27.08;18.50;;;5.40;61.20;;;2.25;80.21;96912.69;4954251;28;20050;-63
2022/01/27 09:09:19;;;;;;;27.75;18.17;;;5.60;60.20;;;2.39;79.71;96900.31;4932334;28;20055;-63
2022/01/27 09:11:46;;;;;;;25.20;17.05;;;5.80;60.20;;;2.51;79.32;96913.31;4917670;28;20032;-63
2022/01/27 09:14:13;;;;;;;23.45;16.70;;;5.70;58.60;;;2.67;78.35;96908.56;4920490;28;20050;-63
2022/01/27 09:16:40;;;;;;;22.23;15.98;;;6.10;57.60;;;2.82;77.94;96911.72;4936616;28;20055;-63
2022/01/27 09:19:06;;;;;;;23.27;16.83;;;6.60;56.30;;;2.97;77.22;96905.31;4932205;28;20125;-64
2022/01/27 09:21:42;;;;;;;23.45;16.73;;;6.90;55.00;;;3.14;76.58;96896.16;4964811;28;20071;-63
2022/01/27 09:24:13;;;;;;;23.35;17.40;;;7.40;53.90;;;3.39;75.48;96895.81;4951466;28;20118;-63
2022/01/27 09:27:21;;;;;;;18.67;14.95;;;8.10;51.80;;;3.68;75.47;96901.25;4918098;28;20044;-63
2022/01/27 09:29:28;;;;;;;18.33;15.20;;;9.00;48.50;;;4.02;74.41;96896.66;4914797;28;20090;-63
2022/01/27 09:31:54;;;;;;;19.20;15.00;;;9.80;46.60;;;4.26;73.05;96889.38;4921945;28;20518;-63
2022/01/27 09:34:20;;;;;;;18.48;13.80;;;10.20;44.40;;;4.53;71.93;96898.41;4919310;28;20052;-63
2022/01/27 09:36:49;;;;;;;19.10;14.23;;;10.40;44.50;;;4.84;70.62;96886.97;4917385;28;20043;-63
2022/01/27 09:39:15;;;;;;;17.30;13.98;;;11.10;42.10;;;5.08;69.53;96883.19;4934078;28;20485;-63
2022/01/27 09:41:41;;;;;;;16.60;13.75;;;11.20;40.50;;;5.22;68.54;96883.63;4936322;28;20086;-63
2022/01/27 09:44:12;;;;;;;15.10;12.68;;;11.30;41.20;;;5.33;68.25;96887.84;4936009;28;20027;-63
2022/01/27 09:46:41;;;;;;;16.67;13.15;;;11.30;40.50;;;5.52;68.15;96881.81;4949500;28;20054;-63
2022/01/27 09:49:13;;;;;;;17.50;12.82;;;11.80;39.20;;;5.76;67.72;96882.19;4916857;28;20515;-63
2022/01/27 09:51:43;;;;;;;15.13;11.93;;;12.40;38.60;;;6.01;65.05;96880.81;4904703;29;20479;-63
2022/01/27 09:54:09;;;;;;;16.88;12.40;;;12.60;36.90;;;6.22;67.01;96885.00;4935937;28;20086;-63
2022/01/27 09:56:35;;;;;;;13.50;11.43;;;13.10;36.90;;;6.44;66.23;96890.72;4917534;28;20511;-63
2022/01/27 09:59:02;;;;;;;15.80;11.65;;;13.50;35.90;;;6.62;65.35;96890.78;4917088;28;20062;-64
2022/01/27 10:01:28;;;;;;;14.25;11.85;;;13.80;35.30;;;6.83;65.34;96890.53;4932243;28;20087;-64
2022/01/27 10:04:03;;;;;;;17.70;12.25;;;14.20;34.50;;;7.12;60.64;96885.13;4948442;28;20452;-63
2022/01/27 10:06:31;;;;;;;14.52;12.32;;;14.70;34.00;;;7.38;63.98;96883.41;4918076;28;20427;-64
2022/01/27 10:09:24;;;;;;;13.98;11.40;;;15.30;32.70;;;7.70;57.79;96883.84;4917204;28;20267;-63
2022/01/27 10:11:50;;;;;;;14.55;11.25;;;15.70;32.30;;;8.01;63.46;96879.81;4937078;28;20532;-63
2022/01/27 10:14:21;;;;;;;14.48;11.73;;;16.60;30.40;;;8.38;61.16;96871.72;4901378;29;20125;-63
2022/01/27 10:16:47;;;;;;;14.98;11.25;;;17.20;29.90;;;8.72;62.51;96865.63;4916950;28;20057;-63
2022/01/27 10:19:13;;;;;;;14.45;10.80;;;18.40;28.00;;;9.12;61.17;96857.88;4900232;28;20036;-63
2022/01/27 10:21:39;;;;;;;11.80;10.50;;;19.60;26.50;;;9.59;59.78;96865.16;4901874;29;20407;-63
2022/01/27 10:24:28;;;;;;;12.63;10.55;;;19.20;26.10;;;9.99;52.75;96858.25;4962729;28;20031;-63
2022/01/27 10:27:33;;;;;;;10.85;9.25;;;20.60;25.50;;;10.48;48.67;96847.63;4956329;28;20038;-63
2022/01/27 10:30:35;;;;;;;11.85;9.13;;;20.70;24.60;;;10.86;56.79;96870.47;4970323;28;20039;-63
2022/01/27 10:32:56;;;;;;;12.98;10.07;;;22.10;23.10;;;11.39;51.36;96865.44;4970563;28;20101;-63
2022/01/27 10:35:25;;;;;;;12.88;11.05;;;22.50;22.70;;;11.76;55.31;96862.00;4915209;28;20523;-63
2022/01/27 10:38:03;;;;;;;13.90;11.05;;;23.00;22.40;;;12.12;49.61;96852.50;4916426;28;20095;-63
2022/01/27 10:40:47;;;;;;;14.90;12.07;;;23.40;21.90;;;12.46;46.79;96833.53;4929178;28;20625;-63
2022/01/27 10:43:19;;;;;;;14.38;11.95;;;23.20;21.90;;;12.72;50.29;96827.75;4919309;28;20507;-63
2022/01/27 10:46:00;;;;;;;15.35;11.48;;;23.20;21.20;;;12.88;45.35;96824.06;4932622;28;20179;-63
2022/01/27 10:48:29;;;;;;;14.77;11.63;;;22.60;21.80;;;12.99;50.65;96817.50;4931525;28;20046;-63
2022/01/27 10:51:33;;;;;;;13.65;10.68;;;22.40;22.20;;;13.19;49.76;96826.50;4916511;28;20039;-63
2022/01/27 10:54:06;;;;;;;12.20;10.68;;;22.80;21.80;;;13.24;48.35;96829.38;4946760;28;20086;-63
2022/01/27 10:56:38;;;;;;;12.57;10.60;;;22.00;22.00;;;13.26;46.80;96824.72;4919782;29;20114;-63